Aérodrome :
LOGIN :

S'inscrire | Disclaimer

   EN    FR    IT 

 










Légende :    VFR   VFR Marginal   IFR   IFR Intensif   IFR Très Intensif
Visi : 
Plafond : 
>= 8 km
>= 3000ft
5 à 8 km
1000 à 3000 ft
1500m à 5 km
500 à 1000 ft
800 à 1500m
200 à 500 ft
< 800m
< 200 ft
Symboles :   Orages  Brouillard  Fortes neiges  Fortes précipitations  Vent > 20 kt
SIGMETs :   Divers  Orages  Givrage  Turbulence  Onde Orograph.  Cendres Volcan.






- Altitude de l'aérodrome : 359 ft
- Code IATA : BVA


LFOB - Beauvais

DERNIER METAR :
  • 040000Z AUTO 12009KT CAVOK 02/M03 Q1009 NOSIG

METARs EXPIRÉS :
  • 032330Z AUTO 12008KT CAVOK 02/M03 Q1010 NOSIG
  • 032300Z AUTO 13007KT CAVOK 02/M03 Q1010 NOSIG
  • 032230Z AUTO 15007KT CAVOK 02/M03 Q1011 NOSIG
  • 032200Z AUTO 15008KT CAVOK 02/M03 Q1011 NOSIG
  • 032130Z AUTO 15008KT 9999 FEW010 OVC150 02/M02 Q1012 NOSIG
  • 032100Z AUTO 16009KT CAVOK 02/M02 Q1012 NOSIG
  • 032030Z AUTO 15007KT CAVOK 02/M03 Q1013 NOSIG
  • 032000Z AUTO 13005KT 110V170 CAVOK 01/M02 Q1013 NOSIG
  • 031930Z AUTO 12008KT CAVOK 01/M02 Q1013 NOSIG

TAF TAF LFOB
Valide du 04 à 00h jusqu'au 05 à 00h UTC


032300Z 0400/0424 15010KT CAVOK
TEMPO 0403/0409 2000 RASN BKN007
TEMPO 0409/0418 3000 RA BKN007
BECMG 0418/0421 22012KT
TEMPO 0421/0424 22015G25KT
ATIS : +33 3 44 11 49 28



MET'MAP, la Météo Aéronautique d'un coup d'oeil ! - Copyright ORBIFLY Décembre 2007 - Disclaimer

ORBIFLY MET'MAP TEAM :

Programmation & Développement : Alexandra Zaïnal
Sur une idée originale de : Baudouin d'Aumeries
Soutien technique & logistique : Manuel Goepfert
Assistance : Marc-Olivier Méhu




SOURCES & CREDITS :

   NOAA